createdAt,value
2018-06-17T00:02:26.033Z,99.90
2018-06-17T00:04:53.667Z,99.90
2018-06-17T00:07:21.376Z,99.90
2018-06-17T00:09:50.117Z,99.90
2018-06-17T00:12:17.980Z,99.90
2018-06-17T00:14:45.888Z,99.90
2018-06-17T00:17:13.831Z,99.90
2018-06-17T00:19:41.527Z,99.90
2018-06-17T00:22:09.281Z,99.90
2018-06-17T00:24:36.847Z,99.90
2018-06-17T00:27:04.440Z,99.90
2018-06-17T00:29:31.979Z,99.90
2018-06-17T00:31:59.640Z,99.90
2018-06-17T00:34:27.202Z,99.90
2018-06-17T00:36:54.747Z,99.90
2018-06-17T00:39:22.304Z,99.90
2018-06-17T00:41:50.087Z,99.90
2018-06-17T00:44:18.035Z,99.90
2018-06-17T00:46:45.839Z,99.90
2018-06-17T00:49:14.651Z,99.90
2018-06-17T00:51:44.030Z,99.90
2018-06-17T00:54:15.080Z,99.90
2018-06-17T00:56:49.130Z,99.90
2018-06-17T00:59:18.931Z,99.90
2018-06-17T01:01:47.827Z,99.90
2018-06-17T01:04:17.898Z,99.90
2018-06-17T01:06:47.920Z,99.90
2018-06-17T01:09:18.528Z,99.90
2018-06-17T01:14:15.887Z,99.90
2018-06-17T01:19:17.624Z,99.90
2018-06-17T01:21:45.181Z,99.90
2018-06-17T01:24:12.731Z,99.90
2018-06-17T01:26:40.333Z,99.90
2018-06-17T01:29:07.932Z,99.90
2018-06-17T01:31:35.568Z,99.40
2018-06-17T01:34:03.152Z,99.90
2018-06-17T01:36:30.941Z,99.90
2018-06-17T01:38:58.778Z,99.90
2018-06-17T01:41:26.659Z,99.90
2018-06-17T01:43:54.207Z,99.90
2018-06-17T01:46:22.162Z,99.90
2018-06-17T01:48:49.820Z,99.90
2018-06-17T01:51:18.412Z,99.90
2018-06-17T01:53:48.519Z,99.90
2018-06-17T01:56:16.069Z,99.90
2018-06-17T01:58:43.652Z,99.90
2018-06-17T02:01:11.291Z,99.90
2018-06-17T02:03:44.467Z,99.90
2018-06-17T02:06:17.699Z,99.40
2018-06-17T02:08:50.892Z,98.90
2018-06-17T02:11:24.260Z,98.50
2018-06-17T02:13:51.963Z,98.50
2018-06-17T02:16:19.587Z,98.30
2018-06-17T02:18:47.150Z,98.10
2018-06-17T02:21:14.751Z,97.80
2018-06-17T02:23:42.363Z,97.70
2018-06-17T02:26:10.001Z,97.80
2018-06-17T02:28:37.743Z,97.90
2018-06-17T02:31:05.760Z,98.10
2018-06-17T02:33:33.345Z,98.00
2018-06-17T02:36:01.012Z,98.00
2018-06-17T02:38:29.122Z,97.80
2018-06-17T02:40:56.705Z,97.80
2018-06-17T02:43:24.451Z,97.90
2018-06-17T02:46:56.366Z,97.90
2018-06-17T02:49:29.571Z,98.00
2018-06-17T02:52:02.683Z,97.80
2018-06-17T02:54:36.004Z,97.50
2018-06-17T02:57:04.277Z,97.20
2018-06-17T02:59:31.950Z,97.40
2018-06-17T03:01:59.956Z,97.00
2018-06-17T03:04:27.477Z,97.00
2018-06-17T03:06:57.471Z,97.10
2018-06-17T03:09:25.152Z,96.90
2018-06-17T03:11:55.741Z,97.00
2018-06-17T03:14:23.370Z,96.70
2018-06-17T03:16:51.172Z,96.90
2018-06-17T03:19:18.983Z,97.00
2018-06-17T03:21:46.620Z,96.80
2018-06-17T03:24:14.213Z,96.40
2018-06-17T03:26:47.489Z,96.40
2018-06-17T03:29:20.736Z,96.50
2018-06-17T03:31:56.799Z,96.80
2018-06-17T03:34:24.413Z,96.30
2018-06-17T03:36:52.002Z,96.40
2018-06-17T03:39:19.588Z,96.20
2018-06-17T03:41:47.155Z,96.80
2018-06-17T03:44:15.896Z,96.40
2018-06-17T03:46:43.456Z,96.10
2018-06-17T03:49:11.012Z,96.40
2018-06-17T03:51:38.568Z,96.20
2018-06-17T03:54:06.461Z,96.40
2018-06-17T03:56:34.079Z,96.60
2018-06-17T03:59:01.767Z,96.20
2018-06-17T04:01:29.430Z,96.10
2018-06-17T04:03:56.990Z,96.10
2018-06-17T04:06:24.603Z,96.00
2018-06-17T04:08:52.123Z,95.80
2018-06-17T04:11:19.684Z,95.80
2018-06-17T04:13:47.261Z,95.60
2018-06-17T04:16:15.447Z,95.80
2018-06-17T04:18:43.062Z,95.80
2018-06-17T04:21:10.625Z,96.10
2018-06-17T04:23:38.199Z,96.10
2018-06-17T04:26:05.984Z,96.40
2018-06-17T04:28:33.878Z,96.40
2018-06-17T04:31:01.541Z,96.50
2018-06-17T04:33:29.149Z,96.60
2018-06-17T04:35:56.695Z,96.70
2018-06-17T04:38:24.254Z,97.00
2018-06-17T04:40:51.847Z,97.40
2018-06-17T04:43:19.435Z,96.70
2018-06-17T04:45:47.033Z,96.70
2018-06-17T04:48:14.658Z,96.60
2018-06-17T04:50:42.283Z,96.40
2018-06-17T04:53:09.909Z,96.60
2018-06-17T04:55:37.485Z,96.60
2018-06-17T04:58:05.383Z,96.50
2018-06-17T05:00:33.060Z,96.60
2018-06-17T05:03:00.661Z,96.80
2018-06-17T05:05:29.268Z,96.40
2018-06-17T05:07:56.899Z,96.30
2018-06-17T05:10:24.647Z,96.30
2018-06-17T05:12:52.287Z,96.70
2018-06-17T05:15:19.815Z,96.20
2018-06-17T05:17:47.433Z,95.60
2018-06-17T05:20:15.186Z,95.30
2018-06-17T05:22:42.751Z,95.00
2018-06-17T05:25:10.321Z,94.60
2018-06-17T05:27:38.014Z,94.90
2018-06-17T05:30:05.716Z,94.40
2018-06-17T05:32:33.454Z,94.40
2018-06-17T05:35:01.077Z,94.20
2018-06-17T05:37:28.721Z,94.30
2018-06-17T05:39:56.282Z,95.30
2018-06-17T05:42:23.861Z,94.90
2018-06-17T05:44:51.405Z,95.40
2018-06-17T05:47:18.961Z,94.50
2018-06-17T05:49:46.521Z,94.70
2018-06-17T05:52:14.385Z,94.20
2018-06-17T05:54:42.063Z,94.00
2018-06-17T05:57:09.704Z,94.00
2018-06-17T05:59:37.311Z,93.20
2018-06-17T06:02:05.099Z,93.00
2018-06-17T06:04:32.860Z,92.60
2018-06-17T06:07:00.407Z,92.70
2018-06-17T06:09:29.244Z,92.10
2018-06-17T06:11:57.807Z,92.70
2018-06-17T06:14:25.548Z,92.40
2018-06-17T06:16:53.083Z,92.90
2018-06-17T06:19:20.715Z,92.50
2018-06-17T06:21:48.305Z,92.50
2018-06-17T06:24:15.915Z,91.80
2018-06-17T06:26:43.486Z,92.00
2018-06-17T06:29:11.142Z,92.40
2018-06-17T06:34:06.190Z,92.00
2018-06-17T06:36:33.742Z,92.30
2018-06-17T06:39:01.320Z,91.90
2018-06-17T06:41:29.048Z,90.80
2018-06-17T06:43:56.660Z,90.70
2018-06-17T06:46:24.294Z,91.00
2018-06-17T06:48:51.982Z,90.90
2018-06-17T06:51:19.612Z,91.10
2018-06-17T06:56:15.800Z,89.90
2018-06-17T06:58:43.391Z,90.50
2018-06-17T07:01:11.020Z,91.00
2018-06-17T07:03:50.023Z,91.60
2018-06-17T07:06:29.088Z,91.60
2018-06-17T07:09:08.092Z,92.20
2018-06-17T07:11:35.704Z,92.20
2018-06-17T07:14:03.321Z,92.40
2018-06-17T07:16:42.429Z,92.10
2018-06-17T07:19:10.096Z,92.10
2018-06-17T07:21:37.770Z,92.00
2018-06-17T07:24:05.356Z,91.40
2018-06-17T07:26:46.334Z,91.00
2018-06-17T07:29:26.750Z,91.30
2018-06-17T07:31:54.397Z,92.00
2018-06-17T07:34:22.065Z,91.60
2018-06-17T07:36:49.697Z,91.40
2018-06-17T07:40:29.872Z,91.30
2018-06-17T07:42:57.612Z,91.70
2018-06-17T07:45:25.282Z,91.40
2018-06-17T07:47:52.960Z,91.30
2018-06-17T07:50:32.104Z,91.30
2018-06-17T07:53:10.975Z,91.40
2018-06-17T07:55:38.529Z,91.40
2018-06-17T07:58:06.091Z,91.40
2018-06-17T08:00:33.712Z,91.80
2018-06-17T08:03:01.669Z,92.00
2018-06-17T08:05:29.300Z,91.30
2018-06-17T08:07:56.908Z,91.90
2018-06-17T08:10:24.495Z,91.30
2018-06-17T08:12:52.116Z,91.70
2018-06-17T08:15:19.716Z,91.40
2018-06-17T08:17:47.419Z,91.10
2018-06-17T08:20:15.466Z,91.40
2018-06-17T08:22:43.163Z,90.90
2018-06-17T08:25:10.734Z,91.30
2018-06-17T08:27:38.349Z,91.20
2018-06-17T08:30:06.173Z,90.90
2018-06-17T08:32:33.867Z,90.20
2018-06-17T08:35:01.755Z,85.00
2018-06-17T08:37:29.338Z,82.60
2018-06-17T08:39:56.912Z,85.80
2018-06-17T08:42:24.490Z,85.50
2018-06-17T08:44:52.095Z,86.40
2018-06-17T08:47:19.755Z,85.90
2018-06-17T08:49:47.370Z,84.40
2018-06-17T08:52:14.997Z,85.30
2018-06-17T08:54:42.680Z,87.10
2018-06-17T08:57:10.323Z,86.40
2018-06-17T08:59:37.912Z,87.70
2018-06-17T09:02:05.597Z,88.20
2018-06-17T09:04:33.197Z,90.40
2018-06-17T09:07:03.780Z,89.50
2018-06-17T09:09:31.447Z,90.00
2018-06-17T09:12:02.085Z,89.70
2018-06-17T09:14:29.788Z,90.00
2018-06-17T09:16:57.512Z,89.60
2018-06-17T09:19:25.127Z,90.00
2018-06-17T09:21:52.684Z,88.60
2018-06-17T09:24:20.279Z,89.70
2018-06-17T09:26:47.891Z,90.40
2018-06-17T09:29:15.529Z,89.50
2018-06-17T09:31:43.243Z,89.80
2018-06-17T09:34:10.873Z,86.90
2018-06-17T09:36:38.508Z,88.40
2018-06-17T09:39:07.519Z,87.50
2018-06-17T09:41:35.108Z,87.30
2018-06-17T09:44:02.813Z,85.30
2018-06-17T09:46:30.576Z,85.80
2018-06-17T09:48:58.192Z,82.90
2018-06-17T09:51:25.810Z,83.40
2018-06-17T09:53:53.444Z,83.40
2018-06-17T09:56:21.072Z,83.00
2018-06-17T09:58:48.735Z,85.20
2018-06-17T10:01:16.332Z,85.00
2018-06-17T10:03:43.969Z,84.70
2018-06-17T10:06:11.616Z,84.90
2018-06-17T10:08:39.263Z,84.80
2018-06-17T10:11:07.551Z,84.90
2018-06-17T10:13:37.693Z,84.60
2018-06-17T10:16:05.678Z,85.50
2018-06-17T10:18:33.358Z,85.10
2018-06-17T10:21:01.009Z,85.80
2018-06-17T10:23:28.685Z,85.70
2018-06-17T10:28:24.976Z,84.50
2018-06-17T10:30:53.244Z,83.90
2018-06-17T10:33:21.082Z,85.00
2018-06-17T10:35:48.781Z,85.40
2018-06-17T10:38:16.489Z,85.70
2018-06-17T10:40:44.318Z,87.40
2018-06-17T10:43:13.321Z,89.00
2018-06-17T10:45:41.166Z,86.50
2018-06-17T10:48:09.053Z,88.40
2018-06-17T10:50:36.800Z,87.80
2018-06-17T10:53:05.068Z,85.60
2018-06-17T10:55:32.729Z,86.80
2018-06-17T10:58:00.544Z,86.70
2018-06-17T11:00:28.201Z,85.30
2018-06-17T11:02:55.826Z,84.50
2018-06-17T11:05:23.434Z,84.60
2018-06-17T11:07:51.242Z,83.40
2018-06-17T11:10:18.845Z,82.10
2018-06-17T11:12:46.441Z,79.60
2018-06-17T11:15:14.131Z,82.20
2018-06-17T11:17:41.736Z,83.10
2018-06-17T11:22:36.932Z,83.30
2018-06-17T11:25:05.544Z,83.40
2018-06-17T11:27:33.206Z,83.70
2018-06-17T11:30:00.846Z,84.10
2018-06-17T11:32:28.450Z,84.50
2018-06-17T11:34:55.993Z,83.90
2018-06-17T11:37:23.821Z,84.30
2018-06-17T11:39:51.608Z,86.20
2018-06-17T11:42:19.769Z,85.80
2018-06-17T11:47:15.623Z,85.10
2018-06-17T11:49:45.102Z,83.40
2018-06-17T11:52:13.136Z,83.70
2018-06-17T11:54:41.016Z,86.50
2018-06-17T11:57:08.946Z,86.20
2018-06-17T11:59:36.564Z,84.40
2018-06-17T12:02:05.770Z,84.30
2018-06-17T12:04:33.584Z,85.60
2018-06-17T12:07:04.393Z,84.80
2018-06-17T12:09:32.117Z,85.70
2018-06-17T12:11:59.705Z,86.70
2018-06-17T12:14:27.300Z,85.20
2018-06-17T12:16:54.940Z,85.80
2018-06-17T12:19:22.592Z,86.50
2018-06-17T12:24:17.904Z,83.20
2018-06-17T12:26:45.810Z,83.90
2018-06-17T12:29:13.736Z,84.10
2018-06-17T12:31:41.441Z,85.30
2018-06-17T12:34:09.150Z,86.20
2018-06-17T12:36:36.831Z,84.30
2018-06-17T12:39:07.978Z,83.90
2018-06-17T12:41:35.580Z,84.80
2018-06-17T12:44:03.227Z,83.20
2018-06-17T12:46:30.859Z,83.70
2018-06-17T12:48:58.539Z,83.10
2018-06-17T12:51:26.169Z,83.70
2018-06-17T12:53:53.884Z,86.00
2018-06-17T12:56:21.514Z,84.30
2018-06-17T12:58:49.188Z,83.10
2018-06-17T13:01:16.846Z,84.70
2018-06-17T13:03:44.484Z,84.80
2018-06-17T13:06:12.104Z,81.70
2018-06-17T13:08:39.778Z,84.10
2018-06-17T13:13:34.884Z,80.50
2018-06-17T13:16:03.088Z,80.60
2018-06-17T13:20:58.596Z,78.40
2018-06-17T13:23:26.261Z,78.80
2018-06-17T13:28:21.645Z,79.20
2018-06-17T13:30:49.447Z,78.60
2018-06-17T13:33:17.200Z,78.90
2018-06-17T13:35:44.800Z,79.80
2018-06-17T13:38:12.486Z,76.60
2018-06-17T13:40:40.323Z,77.00
2018-06-17T13:43:08.110Z,77.40
2018-06-17T13:45:35.786Z,77.30
2018-06-17T13:48:03.464Z,77.10
2018-06-17T13:50:31.072Z,80.00
2018-06-17T13:52:58.706Z,80.50
2018-06-17T13:55:26.335Z,79.40
2018-06-17T13:57:53.992Z,79.00
2018-06-17T14:00:21.666Z,77.50
2018-06-17T14:02:49.288Z,77.00
2018-06-17T14:05:16.932Z,77.00
2018-06-17T14:07:44.534Z,79.10
2018-06-17T14:10:12.181Z,76.20
2018-06-17T14:12:39.871Z,79.00
2018-06-17T14:15:08.876Z,78.40
2018-06-17T14:17:36.527Z,78.80
2018-06-17T14:20:05.280Z,76.70
2018-06-17T14:22:33.013Z,76.80
2018-06-17T14:25:00.724Z,77.20
2018-06-17T14:27:28.380Z,77.90
2018-06-17T14:29:56.035Z,77.60
2018-06-17T14:32:23.662Z,76.50
2018-06-17T14:34:51.281Z,77.90
2018-06-17T14:37:18.986Z,76.40
2018-06-17T14:39:46.632Z,78.70
2018-06-17T14:42:19.809Z,75.90
2018-06-17T14:44:53.019Z,74.60
2018-06-17T14:49:59.296Z,74.40
2018-06-17T14:52:32.520Z,76.40
2018-06-17T14:55:00.128Z,77.00
2018-06-17T14:57:27.949Z,77.20
2018-06-17T14:59:55.729Z,77.90
2018-06-17T15:02:23.319Z,75.60
2018-06-17T15:04:50.909Z,75.30
2018-06-17T15:07:18.553Z,77.50
2018-06-17T15:09:46.213Z,78.20
2018-06-17T15:12:14.031Z,76.90
2018-06-17T15:14:41.749Z,77.60
2018-06-17T15:17:09.545Z,77.80
2018-06-17T15:19:37.134Z,78.60
2018-06-17T15:22:06.054Z,79.80
2018-06-17T15:24:33.715Z,78.00
2018-06-17T15:27:01.336Z,79.80
2018-06-17T15:29:28.960Z,79.70
2018-06-17T15:32:02.249Z,78.50
2018-06-17T15:34:35.452Z,78.00
2018-06-17T15:37:08.632Z,77.90
2018-06-17T15:39:41.988Z,79.90
2018-06-17T15:42:10.438Z,79.50
2018-06-17T15:44:38.047Z,77.80
2018-06-17T15:47:05.694Z,79.80
2018-06-17T15:49:35.836Z,80.60
2018-06-17T15:52:03.523Z,78.80
2018-06-17T15:54:31.155Z,80.50
2018-06-17T15:56:58.764Z,80.00
2018-06-17T15:59:26.564Z,79.60
2018-06-17T16:01:54.222Z,80.90
2018-06-17T16:04:21.892Z,79.50
2018-06-17T16:06:49.541Z,79.90
2018-06-17T16:09:17.409Z,80.70
2018-06-17T16:11:50.460Z,80.60
2018-06-17T16:14:23.733Z,81.30
2018-06-17T16:21:31.440Z,80.30
2018-06-17T16:23:59.292Z,80.80
2018-06-17T16:26:26.935Z,82.90
2018-06-17T16:28:54.522Z,81.70
2018-06-17T16:31:22.163Z,82.60
2018-06-17T16:33:49.780Z,83.00
2018-06-17T16:36:17.348Z,84.10
2018-06-17T16:38:45.025Z,82.80
2018-06-17T16:41:12.583Z,82.80
2018-06-17T16:43:40.180Z,82.40
2018-06-17T16:46:07.768Z,82.00
2018-06-17T16:48:35.464Z,82.70
2018-06-17T16:51:08.844Z,82.40
2018-06-17T16:53:42.051Z,83.30
2018-06-17T16:56:15.302Z,81.70
2018-06-17T16:58:48.499Z,83.50
2018-06-17T17:01:16.282Z,84.10
2018-06-17T17:03:43.885Z,83.80
2018-06-17T17:06:11.602Z,83.90
2018-06-17T17:08:39.319Z,83.50
2018-06-17T17:11:06.899Z,83.50
2018-06-17T17:13:34.463Z,83.50
2018-06-17T17:16:02.116Z,82.60
2018-06-17T17:18:29.895Z,81.90
2018-06-17T17:20:57.536Z,82.10
2018-06-17T17:23:25.336Z,82.60
2018-06-17T17:25:52.887Z,83.20
2018-06-17T17:28:20.556Z,82.10
2018-06-17T17:30:49.383Z,83.00
2018-06-17T17:33:22.652Z,83.30
2018-06-17T17:35:55.916Z,82.50
2018-06-17T17:38:32.912Z,82.50
2018-06-17T17:41:02.768Z,83.20
2018-06-17T17:43:30.400Z,82.30
2018-06-17T17:46:03.651Z,82.70
2018-06-17T17:48:31.321Z,83.00
2018-06-17T17:50:59.324Z,82.90
2018-06-17T17:53:26.982Z,83.20
2018-06-17T17:55:54.608Z,82.60
2018-06-17T17:58:22.241Z,82.90
2018-06-17T18:00:49.939Z,84.70
2018-06-17T18:03:17.880Z,84.10
2018-06-17T18:05:45.545Z,83.10
2018-06-17T18:08:13.263Z,84.10
2018-06-17T18:10:41.149Z,83.00
2018-06-17T18:13:09.478Z,83.50
2018-06-17T18:15:43.884Z,84.30
2018-06-17T18:18:11.968Z,84.20
2018-06-17T18:20:40.318Z,84.40
2018-06-17T18:23:08.222Z,84.30
2018-06-17T18:25:41.343Z,83.60
2018-06-17T18:28:14.552Z,84.00
2018-06-17T18:30:48.158Z,83.60
2018-06-17T18:33:21.408Z,84.50
2018-06-17T18:35:54.927Z,84.50
2018-06-17T18:38:22.587Z,85.20
2018-06-17T18:40:50.331Z,84.80
2018-06-17T18:43:18.037Z,84.80
2018-06-17T18:45:45.744Z,85.40
2018-06-17T18:48:13.377Z,86.50
2018-06-17T18:50:41.108Z,85.50
2018-06-17T18:53:08.765Z,85.20
2018-06-17T18:55:36.338Z,86.40
2018-06-17T18:58:04.407Z,85.30
2018-06-17T19:00:32.106Z,85.90
2018-06-17T19:05:27.272Z,86.70
2018-06-17T19:10:28.202Z,86.70
2018-06-17T19:13:01.389Z,86.10
2018-06-17T19:15:34.677Z,86.60
2018-06-17T19:18:06.033Z,87.30
2018-06-17T19:20:33.602Z,87.30
2018-06-17T19:23:01.262Z,87.40
2018-06-17T19:25:28.945Z,88.20
2018-06-17T19:27:57.075Z,88.40
2018-06-17T19:30:24.800Z,87.70
2018-06-17T19:32:52.606Z,87.80
2018-06-17T19:35:20.334Z,88.00
2018-06-17T19:37:47.907Z,88.00
2018-06-17T19:40:15.530Z,88.20
2018-06-17T19:42:43.263Z,89.90
2018-06-17T19:45:10.877Z,89.80
2018-06-17T19:47:38.594Z,89.20
2018-06-17T19:50:11.980Z,89.40
2018-06-17T19:52:45.239Z,89.70
2018-06-17T19:55:18.511Z,89.50
2018-06-17T19:57:51.730Z,88.90
2018-06-17T20:00:25.127Z,88.80
2018-06-17T20:02:52.749Z,90.40
2018-06-17T20:05:20.384Z,90.30
2018-06-17T20:07:48.059Z,90.00
2018-06-17T20:10:15.705Z,89.20
2018-06-17T20:12:43.343Z,89.40
2018-06-17T20:15:11.595Z,90.00
2018-06-17T20:17:39.268Z,90.20
2018-06-17T20:20:06.953Z,90.50
2018-06-17T20:22:34.695Z,90.60
2018-06-17T20:25:02.645Z,91.30
2018-06-17T20:27:30.277Z,91.60
2018-06-17T20:29:57.948Z,91.60
2018-06-17T20:32:31.010Z,91.60
2018-06-17T20:35:04.379Z,91.60
2018-06-17T20:37:37.701Z,91.80
2018-06-17T20:40:11.111Z,91.80
2018-06-17T20:42:44.572Z,91.70
2018-06-17T20:45:12.796Z,92.10
2018-06-17T20:47:40.429Z,92.50
2018-06-17T20:50:08.030Z,92.50
2018-06-17T20:52:35.923Z,92.30
2018-06-17T20:55:03.644Z,92.60
2018-06-17T20:57:31.250Z,92.60
2018-06-17T20:59:58.856Z,92.90
2018-06-17T21:02:26.539Z,92.60
2018-06-17T21:04:54.136Z,92.50
2018-06-17T21:07:21.813Z,92.70
2018-06-17T21:09:49.388Z,93.00
2018-06-17T21:12:18.320Z,93.00
2018-06-17T21:14:46.001Z,93.70
2018-06-17T21:17:13.735Z,93.10
2018-06-17T21:19:47.994Z,93.20
2018-06-17T21:22:21.281Z,92.90
2018-06-17T21:24:54.506Z,93.50
2018-06-17T21:27:27.674Z,94.20
2018-06-17T21:29:55.257Z,94.50
2018-06-17T21:32:22.864Z,94.10
2018-06-17T21:34:50.727Z,94.50
2018-06-17T21:37:21.790Z,94.30
2018-06-17T21:39:49.377Z,94.10
2018-06-17T21:42:19.747Z,95.40
2018-06-17T21:44:47.371Z,95.20
2018-06-17T21:47:15.308Z,95.40
2018-06-17T21:49:42.962Z,95.50
2018-06-17T21:52:10.555Z,95.40
2018-06-17T21:54:38.115Z,93.10
2018-06-17T21:57:05.855Z,93.00
2018-06-17T21:59:33.460Z,92.80
2018-06-17T22:02:01.143Z,92.70
2018-06-17T22:04:34.245Z,92.30
2018-06-17T22:07:01.996Z,92.50
2018-06-17T22:09:35.088Z,92.30
2018-06-17T22:12:08.313Z,92.40
2018-06-17T22:14:41.499Z,92.40
2018-06-17T22:17:14.792Z,92.40
2018-06-17T22:19:42.435Z,92.40
2018-06-17T22:22:10.401Z,92.60
2018-06-17T22:24:37.997Z,92.50
2018-06-17T22:27:05.567Z,92.50
2018-06-17T22:29:33.112Z,92.70
2018-06-17T22:32:00.803Z,92.80
2018-06-17T22:34:28.425Z,92.70
2018-06-17T22:36:56.020Z,92.70
2018-06-17T22:39:23.692Z,92.60
2018-06-17T22:41:51.338Z,92.10
2018-06-17T22:44:18.952Z,92.20
2018-06-17T22:46:46.644Z,92.00
2018-06-17T22:49:14.198Z,92.10
2018-06-17T22:51:41.769Z,91.60
2018-06-17T22:54:20.747Z,91.70
2018-06-17T22:56:53.940Z,91.60
2018-06-17T22:59:27.104Z,91.70
2018-06-17T23:03:03.025Z,91.60
2018-06-17T23:05:36.318Z,91.40
2018-06-17T23:08:10.863Z,91.50
2018-06-17T23:10:38.423Z,91.30
2018-06-17T23:13:06.004Z,91.60
2018-06-17T23:15:33.565Z,91.30
2018-06-17T23:18:01.221Z,91.70
2018-06-17T23:20:28.899Z,91.20
2018-06-17T23:22:56.470Z,91.00
2018-06-17T23:25:24.048Z,91.00
2018-06-17T23:27:51.628Z,91.20
2018-06-17T23:30:19.642Z,91.00
2018-06-17T23:32:47.366Z,90.90
2018-06-17T23:35:15.123Z,91.10
2018-06-17T23:37:42.702Z,91.10
2018-06-17T23:40:10.293Z,91.20
2018-06-17T23:42:37.858Z,91.30
2018-06-17T23:45:05.542Z,91.30
2018-06-17T23:47:38.787Z,91.10
2018-06-17T23:50:11.949Z,91.30
2018-06-17T23:52:45.086Z,91.50
2018-06-17T23:55:18.413Z,91.10
2018-06-17T23:57:46.032Z,91.10
